Time;durP1;ratioP1;P1;durP2;ratioP2;P2;SDS_P1;SDS_P2;PMS_P1;PMS_P2;Temp;Humidity;BMP_temperature;BMP_pressure;BME280_temperature;BME280_humidity;BME280_pressure;Samples;Min_cycle;Max_cycle;Signal;HPM_P1;HPM_P2
2022/11/08 00:02:11;;;;;;;;;;;8.60;99.90;;;;;;5007233;28;20045;-80
2022/11/08 00:04:37;;;;;;;4.10;2.70;;;8.60;99.90;;;;;;5006311;28;19913;-81
2022/11/08 00:15:16;;;;;;;;;;;8.50;99.90;;;;;;5011401;28;20037;-80
2022/11/08 00:17:42;;;;;;;14.43;7.80;;;8.50;99.90;;;;;;5007897;28;19914;-81
2022/11/08 00:20:08;;;;;;;18.65;8.63;;;8.40;99.90;;;;;;5011465;28;20155;-81
2022/11/08 00:22:34;;;;;;;18.08;8.25;;;8.50;99.90;;;;;;5006006;28;20025;-81
2022/11/08 00:25:00;;;;;;;16.80;7.75;;;8.40;99.90;;;;;;5007571;28;20030;-80
2022/11/08 00:27:26;;;;;;;11.73;6.18;;;8.40;99.90;;;;;;5002785;28;20095;-81
2022/11/08 00:29:52;;;;;;;10.77;5.95;;;8.30;99.90;;;;;;5006905;28;20033;-80
2022/11/08 00:32:20;;;;;;;9.38;6.03;;;8.30;99.90;;;;;;5006849;28;20040;-80
2022/11/08 00:34:47;;;;;;;10.80;6.10;;;8.20;99.90;;;;;;5004523;28;20105;-80
2022/11/08 00:37:14;;;;;;;10.57;6.38;;;8.10;99.90;;;;;;5004982;28;20022;-80
2022/11/08 00:39:40;;;;;;;19.48;7.60;;;8.10;99.90;;;;;;5004814;28;20033;-81
2022/11/08 00:42:05;;;;;;;11.88;6.90;;;8.10;99.90;;;;;;5005630;28;20041;-81
2022/11/08 00:44:31;;;;;;;12.60;7.63;;;8.00;99.90;;;;;;5003764;28;20021;-81
2022/11/08 00:46:57;;;;;;;13.73;8.07;;;8.00;99.90;;;;;;5005860;28;20386;-81
2022/11/08 00:49:22;;;;;;;12.43;7.72;;;7.90;99.90;;;;;;5005944;28;20026;-81
2022/11/08 00:51:48;;;;;;;14.25;8.27;;;7.90;99.90;;;;;;5005745;28;20034;-81
2022/11/08 00:54:17;;;;;;;16.65;7.78;;;7.90;99.90;;;;;;5005208;28;20026;-83
2022/11/08 00:56:44;;;;;;;18.08;8.40;;;7.80;99.90;;;;;;5004378;28;20537;-81
2022/11/08 00:59:14;;;;;;;12.38;7.50;;;7.80;99.90;;;;;;5006174;28;20030;-80
2022/11/08 01:01:40;;;;;;;12.05;7.15;;;7.80;99.90;;;;;;5002580;28;20129;-81
2022/11/08 01:04:07;;;;;;;13.82;7.63;;;7.70;99.90;;;;;;5006020;28;20109;-80
2022/11/08 01:06:33;;;;;;;13.45;7.03;;;7.70;99.90;;;;;;5005230;28;20028;-81
2022/11/08 01:08:59;;;;;;;11.15;6.93;;;7.60;99.90;;;;;;5008022;28;20104;-81
2022/11/08 01:11:26;;;;;;;17.30;7.60;;;7.60;99.90;;;;;;5006008;28;20100;-80
2022/11/08 01:13:56;;;;;;;13.57;6.80;;;7.60;99.90;;;;;;5004182;28;20034;-81
2022/11/08 01:16:25;;;;;;;13.55;6.85;;;7.60;99.90;;;;;;5005597;28;20105;-81
2022/11/08 01:18:53;;;;;;;13.40;6.95;;;7.60;99.90;;;;;;5011169;28;20037;-80
2022/11/08 01:21:19;;;;;;;13.13;7.25;;;7.60;99.90;;;;;;5008962;28;20050;-81
2022/11/08 01:23:45;;;;;;;12.75;8.02;;;7.50;99.90;;;;;;5009119;28;20029;-80
2022/11/08 01:26:16;;;;;;;11.85;7.13;;;7.50;99.90;;;;;;5007855;28;20034;-81
2022/11/08 01:28:42;;;;;;;11.30;6.10;;;7.50;99.90;;;;;;5009177;28;20398;-81
2022/11/08 01:31:11;;;;;;;11.45;6.30;;;7.50;99.90;;;;;;5010144;28;20430;-80
2022/11/08 01:33:38;;;;;;;10.93;6.53;;;7.40;99.90;;;;;;5021506;28;20033;-81
2022/11/08 01:36:11;;;;;;;12.32;6.60;;;7.40;99.90;;;;;;5009235;28;20026;-80
2022/11/08 01:38:37;;;;;;;10.73;6.15;;;7.30;99.90;;;;;;5010944;28;20129;-81
2022/11/08 01:41:03;;;;;;;10.55;6.13;;;7.30;99.90;;;;;;5011066;28;20026;-81
2022/11/08 01:43:29;;;;;;;11.07;6.22;;;7.30;99.90;;;;;;5010088;28;20512;-80
2022/11/08 01:46:18;;;;;;;10.40;6.40;;;7.30;99.90;;;;;;5011595;28;20056;-81
2022/11/08 01:48:54;;;;;;;9.75;5.70;;;7.30;99.90;;;;;;5010943;28;20092;-80
2022/11/08 01:51:29;;;;;;;10.68;6.43;;;7.20;99.90;;;;;;5002629;28;20042;-81
2022/11/08 01:53:58;;;;;;;9.35;6.57;;;7.20;99.90;;;;;;5010341;28;20393;-81
2022/11/08 01:56:24;;;;;;;15.35;7.43;;;7.20;99.90;;;;;;5009950;28;20555;-81
2022/11/08 01:58:56;;;;;;;11.88;6.88;;;7.20;99.90;;;;;;5010295;28;20057;-81
2022/11/08 02:01:21;;;;;;;13.30;6.55;;;7.20;99.90;;;;;;5008417;28;20022;-81
2022/11/08 02:03:47;;;;;;;14.35;7.85;;;7.20;99.90;;;;;;5010451;28;20037;-80
2022/11/08 02:06:14;;;;;;;13.57;6.15;;;7.20;99.90;;;;;;5008205;28;20026;-81
2022/11/08 02:08:42;;;;;;;16.77;7.47;;;7.20;99.90;;;;;;5010971;28;20028;-80
2022/11/08 02:11:12;;;;;;;12.75;6.70;;;7.20;99.90;;;;;;5006875;28;20540;-81
2022/11/08 02:13:39;;;;;;;9.63;6.00;;;7.20;99.90;;;;;;5012960;28;20026;-81
2022/11/08 02:16:12;;;;;;;11.85;5.95;;;7.20;99.90;;;;;;5013361;28;20029;-81
2022/11/08 02:18:41;;;;;;;12.30;6.63;;;7.20;99.90;;;;;;5015426;28;20136;-81
2022/11/08 02:21:23;;;;;;;11.88;5.47;;;7.20;99.90;;;;;;5018277;28;20026;-81
2022/11/08 02:23:55;;;;;;;8.32;4.82;;;7.20;99.90;;;;;;5024675;28;20026;-80
2022/11/08 02:26:24;;;;;;;9.85;5.68;;;7.20;99.90;;;;;;5030324;28;20025;-81
2022/11/08 02:28:49;;;;;;;15.48;7.65;;;7.20;99.90;;;;;;5037424;28;20045;-81
2022/11/08 02:31:17;;;;;;;14.43;6.70;;;7.20;99.90;;;;;;5031564;28;20014;-81
2022/11/08 02:33:43;;;;;;;12.32;6.22;;;7.20;99.90;;;;;;5026593;28;20038;-81
2022/11/08 02:36:13;;;;;;;14.43;6.93;;;7.10;99.90;;;;;;5026510;28;20030;-81
2022/11/08 02:38:42;;;;;;;10.70;6.35;;;7.10;99.90;;;;;;5009473;28;20088;-80
2022/11/08 02:41:07;;;;;;;10.40;5.57;;;7.10;99.90;;;;;;5008585;28;20105;-82
2022/11/08 02:43:33;;;;;;;16.05;7.82;;;7.10;99.90;;;;;;5004283;28;20116;-79
2022/11/08 02:45:59;;;;;;;11.48;6.40;;;7.00;99.90;;;;;;5008685;28;20029;-81
2022/11/08 02:48:25;;;;;;;9.82;6.53;;;7.00;99.90;;;;;;5010945;28;20030;-81
2022/11/08 02:50:51;;;;;;;10.65;5.97;;;7.00;99.90;;;;;;5008257;28;20490;-81
2022/11/08 02:53:17;;;;;;;7.88;5.10;;;7.00;99.90;;;;;;5008157;28;20057;-80
2022/11/08 02:55:43;;;;;;;7.50;4.40;;;6.90;99.90;;;;;;5009573;28;20030;-81
2022/11/08 02:58:10;;;;;;;11.32;4.72;;;6.90;99.90;;;;;;5007112;28;20394;-80
2022/11/08 03:00:35;;;;;;;10.93;5.72;;;6.90;99.90;;;;;;5006748;28;24611;-81
2022/11/08 03:03:01;;;;;;;8.52;5.07;;;6.80;99.90;;;;;;5007367;28;20514;-81
2022/11/08 03:05:28;;;;;;;8.80;4.68;;;6.80;99.90;;;;;;5010967;28;20021;-81
2022/11/08 03:07:54;;;;;;;9.38;5.05;;;6.70;99.90;;;;;;5006324;28;20139;-81
2022/11/08 03:10:22;;;;;;;8.90;5.50;;;6.70;99.90;;;;;;5010984;28;20446;-81
2022/11/08 03:12:58;;;;;;;10.10;5.95;;;6.60;99.90;;;;;;5009074;28;20034;-81
2022/11/08 03:15:25;;;;;;;9.82;5.85;;;6.60;99.90;;;;;;5009067;28;20037;-81
2022/11/08 03:17:51;;;;;;;13.95;6.72;;;6.60;99.90;;;;;;5009163;28;20014;-80
2022/11/08 03:20:17;;;;;;;11.77;6.50;;;6.50;99.90;;;;;;5004645;28;20069;-80
2022/11/08 03:22:43;;;;;;;22.35;6.43;;;6.50;99.90;;;;;;5010929;28;20026;-81
2022/11/08 03:25:09;;;;;;;11.10;6.68;;;6.50;99.90;;;;;;5007584;28;20026;-81
2022/11/08 03:27:34;;;;;;;13.52;6.72;;;6.40;99.90;;;;;;5008156;28;20033;-81
2022/11/08 03:30:00;;;;;;;11.45;6.88;;;6.40;99.90;;;;;;5004670;28;20033;-82
2022/11/08 03:32:26;;;;;;;13.07;6.78;;;6.40;99.90;;;;;;5009664;28;20030;-81
2022/11/08 03:34:51;;;;;;;10.23;6.47;;;6.30;99.90;;;;;;5006379;28;20061;-81
2022/11/08 03:37:17;;;;;;;11.82;7.32;;;6.30;99.90;;;;;;5009513;28;20100;-81
2022/11/08 03:39:43;;;;;;;11.57;6.68;;;6.30;99.90;;;;;;5007086;28;20432;-81
2022/11/08 03:42:08;;;;;;;10.00;6.47;;;6.30;99.90;;;;;;5008780;28;20567;-81
2022/11/08 03:44:34;;;;;;;11.35;6.60;;;6.20;99.90;;;;;;5008920;28;20025;-81
2022/11/08 03:47:00;;;;;;;11.70;6.40;;;6.10;99.90;;;;;;5011372;28;20014;-82
2022/11/08 03:49:26;;;;;;;13.10;6.68;;;6.20;99.90;;;;;;5007504;28;20037;-80
2022/11/08 03:51:54;;;;;;;12.93;6.75;;;6.10;99.90;;;;;;5005516;28;20402;-80
2022/11/08 03:54:20;;;;;;;10.02;7.22;;;6.10;99.90;;;;;;5009233;28;20131;-81
2022/11/08 03:56:46;;;;;;;10.77;5.95;;;6.10;99.90;;;;;;5009509;28;20089;-81
2022/11/08 03:59:12;;;;;;;10.38;6.25;;;6.10;99.90;;;;;;5004327;28;20557;-81
2022/11/08 04:01:38;;;;;;;10.95;6.88;;;6.00;99.90;;;;;;5003026;28;20022;-81
2022/11/08 04:04:05;;;;;;;8.18;6.20;;;6.00;99.90;;;;;;5005778;28;20030;-80
2022/11/08 04:06:30;;;;;;;9.10;6.75;;;6.00;99.90;;;;;;5002537;28;20041;-80
2022/11/08 04:08:56;;;;;;;9.52;6.47;;;6.00;99.90;;;;;;5006161;28;20033;-81
2022/11/08 04:16:52;;;;;;;9.98;6.68;;;5.90;99.90;;;;;;5006127;28;20037;-80
2022/11/08 04:22:02;;;;;;;13.15;8.05;;;5.80;99.90;;;;;;5007063;28;20060;-80
2022/11/08 04:24:28;;;;;;;10.25;6.80;;;5.80;99.90;;;;;;5004283;28;20965;-80
2022/11/08 04:26:53;;;;;;;9.13;6.55;;;5.80;99.90;;;;;;5009807;28;20026;-81
2022/11/08 04:29:19;;;;;;;11.15;6.93;;;5.70;99.90;;;;;;5007914;28;20025;-81
2022/11/08 04:31:44;;;;;;;11.07;6.63;;;5.70;99.90;;;;;;5008649;28;20482;-82
2022/11/08 04:34:10;;;;;;;10.73;7.13;;;5.70;99.90;;;;;;5006095;28;20037;-82
2022/11/08 04:36:36;;;;;;;9.38;6.72;;;5.70;99.90;;;;;;5008372;28;20040;-81
2022/11/08 04:39:01;;;;;;;12.20;6.38;;;5.60;99.90;;;;;;4999172;28;20287;-82
2022/11/08 04:41:27;;;;;;;11.10;6.70;;;5.60;99.90;;;;;;5005928;28;20030;-81
2022/11/08 04:43:55;;;;;;;16.23;8.80;;;5.60;99.90;;;;;;5008122;28;20022;-82
2022/11/08 04:46:24;;;;;;;11.63;7.30;;;5.50;99.90;;;;;;5007318;28;20022;-81
2022/11/08 04:48:51;;;;;;;11.43;7.32;;;5.50;99.90;;;;;;5009281;28;20623;-82
2022/11/08 04:51:19;;;;;;;11.27;7.25;;;5.50;99.90;;;;;;5006551;28;20402;-82
2022/11/08 04:53:45;;;;;;;11.52;7.05;;;5.50;99.90;;;;;;5003475;28;20027;-82
2022/11/08 04:56:18;;;;;;;11.80;6.63;;;5.50;99.90;;;;;;5005640;28;20038;-81
2022/11/08 04:58:46;;;;;;;13.10;8.60;;;5.50;99.90;;;;;;5008351;28;20032;-81
2022/11/08 05:01:16;;;;;;;11.98;7.97;;;5.50;99.90;;;;;;5005166;28;20034;-81
2022/11/08 05:03:44;;;;;;;13.88;7.65;;;5.60;99.90;;;;;;5006291;28;20069;-81
2022/11/08 05:06:15;;;;;;;11.90;7.97;;;5.50;99.90;;;;;;5005933;28;20018;-80
2022/11/08 05:08:41;;;;;;;8.88;6.70;;;5.50;99.90;;;;;;5007378;28;20445;-82
2022/11/08 05:11:12;;;;;;;12.40;7.78;;;5.50;99.90;;;;;;5002487;28;20033;-80
2022/11/08 05:13:39;;;;;;;11.73;7.85;;;5.50;99.90;;;;;;5006033;28;20513;-81
2022/11/08 05:16:07;;;;;;;10.93;7.70;;;5.60;99.90;;;;;;5021596;23;20172;-78
2022/11/08 05:18:33;;;;;;;11.77;7.47;;;5.60;99.90;;;;;;5020628;28;20073;-78
2022/11/08 05:23:46;;;;;;;13.07;8.30;;;5.50;99.90;;;;;;5025255;28;20068;-78
2022/11/08 05:26:13;;;;;;;14.18;7.60;;;5.60;99.90;;;;;;5026814;28;20026;-77
2022/11/08 05:28:41;;;;;;;13.32;7.75;;;5.50;99.90;;;;;;5024710;28;20500;-78
2022/11/08 05:31:08;;;;;;;16.35;7.93;;;5.50;99.90;;;;;;5025704;28;20033;-77
2022/11/08 05:33:34;;;;;;;12.98;7.88;;;5.50;99.90;;;;;;5020418;28;20037;-77
2022/11/08 05:36:01;;;;;;;12.45;7.10;;;5.50;99.90;;;;;;5024093;28;20037;-78
2022/11/08 05:38:28;;;;;;;11.23;7.47;;;5.60;99.90;;;;;;5023621;28;20350;-78
2022/11/08 05:40:54;;;;;;;12.98;7.95;;;5.60;99.90;;;;;;5027501;28;20030;-78
2022/11/08 05:43:19;;;;;;;11.50;7.38;;;5.60;99.90;;;;;;5025938;28;20399;-78
2022/11/08 05:45:45;;;;;;;10.63;7.38;;;5.60;99.90;;;;;;5025950;28;20040;-78
2022/11/08 05:48:11;;;;;;;15.57;8.15;;;5.60;99.90;;;;;;5016762;28;20033;-78
2022/11/08 05:50:36;;;;;;;12.60;7.68;;;5.50;99.90;;;;;;5016278;28;20033;-78
2022/11/08 05:53:02;;;;;;;13.68;7.50;;;5.60;99.90;;;;;;5022012;28;20045;-78
2022/11/08 05:55:28;;;;;;;11.88;7.20;;;5.60;99.90;;;;;;5020404;28;20021;-77
2022/11/08 05:57:54;;;;;;;10.80;7.28;;;5.60;99.90;;;;;;5027135;28;20670;-79
2022/11/08 06:00:20;;;;;;;19.25;11.57;;;5.50;99.90;;;;;;5023250;28;20036;-76
2022/11/08 06:02:45;;;;;;;32.13;22.58;;;5.50;99.90;;;;;;5026215;28;20029;-76
2022/11/08 06:05:11;;;;;;;44.63;32.25;;;5.50;99.90;;;;;;5032867;28;20080;-76
2022/11/08 06:07:37;;;;;;;38.85;30.58;;;5.50;99.90;;;;;;5026584;28;20523;-76
2022/11/08 06:10:04;;;;;;;34.92;27.02;;;5.50;99.90;;;;;;5027123;28;20104;-76
2022/11/08 06:12:30;;;;;;;30.90;25.05;;;5.40;99.90;;;;;;5025658;28;20401;-76
2022/11/08 06:14:56;;;;;;;31.65;23.23;;;5.40;99.90;;;;;;5026749;28;20025;-76
2022/11/08 06:17:21;;;;;;;25.13;18.67;;;5.50;99.90;;;;;;5022117;28;20044;-75
2022/11/08 06:19:47;;;;;;;22.23;16.15;;;5.50;99.90;;;;;;5025440;28;20124;-76
2022/11/08 06:22:13;;;;;;;24.83;17.25;;;5.50;99.90;;;;;;5023627;28;20037;-78
2022/11/08 06:24:38;;;;;;;25.20;17.67;;;5.40;99.90;;;;;;5031704;28;20033;-77
2022/11/08 06:27:04;;;;;;;19.50;14.50;;;5.50;99.90;;;;;;5024179;28;20021;-76
2022/11/08 06:29:30;;;;;;;22.33;13.85;;;5.40;99.90;;;;;;5029569;28;20477;-77
2022/11/08 06:31:57;;;;;;;15.07;10.40;;;5.50;99.90;;;;;;5028545;28;20120;-78
2022/11/08 06:34:23;;;;;;;16.80;9.13;;;5.50;99.90;;;;;;5029297;28;20403;-77
2022/11/08 06:36:49;;;;;;;11.18;7.13;;;5.40;99.90;;;;;;5030449;28;20029;-77
2022/11/08 06:39:15;;;;;;;10.77;7.00;;;5.40;99.90;;;;;;5029075;28;21003;-76
2022/11/08 06:41:40;;;;;;;12.98;6.78;;;5.40;99.90;;;;;;5028597;28;20030;-77
2022/11/08 06:44:06;;;;;;;14.68;7.57;;;5.40;99.90;;;;;;5028930;28;20461;-77
2022/11/08 06:46:32;;;;;;;9.45;7.32;;;5.40;99.90;;;;;;5031486;28;20026;-77
2022/11/08 06:48:57;;;;;;;16.83;7.75;;;5.30;99.90;;;;;;5029165;28;20029;-77
2022/11/08 06:51:23;;;;;;;14.40;7.57;;;5.30;99.90;;;;;;5030494;28;20497;-77
2022/11/08 06:53:48;;;;;;;20.27;7.88;;;5.40;99.90;;;;;;5026030;28;20037;-76
2022/11/08 06:56:14;;;;;;;12.35;7.07;;;5.30;99.90;;;;;;5023118;28;20076;-77
2022/11/08 06:58:40;;;;;;;15.07;8.15;;;5.40;99.90;;;;;;5025511;28;20029;-77
2022/11/08 07:01:07;;;;;;;13.85;7.60;;;5.40;99.90;;;;;;5026752;28;20425;-77
2022/11/08 07:03:33;;;;;;;17.80;7.47;;;5.40;99.90;;;;;;5024875;28;20030;-77
2022/11/08 07:06:06;;;;;;;16.00;8.50;;;5.40;99.90;;;;;;5026217;28;20029;-77
2022/11/08 07:08:32;;;;;;;14.90;8.35;;;5.40;99.90;;;;;;5025922;28;20097;-77
2022/11/08 07:10:58;;;;;;;14.48;8.25;;;5.40;99.90;;;;;;5028305;28;20333;-78
2022/11/08 07:13:24;;;;;;;15.48;9.25;;;5.50;99.90;;;;;;5025122;28;20025;-78
2022/11/08 07:15:50;;;;;;;12.43;8.77;;;5.50;99.90;;;;;;5013134;28;20500;-76
2022/11/08 07:18:17;;;;;;;11.15;7.85;;;5.50;99.90;;;;;;5025959;28;20038;-76
2022/11/08 07:20:43;;;;;;;12.73;8.32;;;5.60;99.90;;;;;;5020160;28;20101;-76
2022/11/08 07:23:10;;;;;;;14.73;7.95;;;5.60;99.90;;;;;;5018360;28;20592;-77
2022/11/08 07:25:36;;;;;;;12.32;7.95;;;5.70;99.90;;;;;;5026625;28;20079;-77
2022/11/08 07:28:05;;;;;;;14.45;8.57;;;5.70;99.90;;;;;;5018179;28;20033;-77
2022/11/08 07:30:32;;;;;;;13.45;8.30;;;5.80;99.90;;;;;;5029484;28;20022;-77
2022/11/08 07:32:58;;;;;;;15.60;8.82;;;5.90;99.90;;;;;;5026011;28;20066;-77
2022/11/08 07:35:26;;;;;;;12.07;7.95;;;6.00;99.90;;;;;;5024495;28;20029;-76
2022/11/08 07:37:52;;;;;;;13.38;7.57;;;6.00;99.90;;;;;;5023551;28;20366;-77
2022/11/08 07:40:18;;;;;;;15.75;8.73;;;6.10;99.90;;;;;;5028816;28;20036;-77
2022/11/08 07:42:44;;;;;;;18.17;9.52;;;6.10;99.90;;;;;;5026619;28;20107;-77
2022/11/08 07:45:10;;;;;;;14.48;8.50;;;6.20;99.90;;;;;;5022387;28;20053;-77
2022/11/08 07:47:36;;;;;;;13.80;8.93;;;6.20;99.90;;;;;;5023913;28;20026;-77
2022/11/08 07:50:03;;;;;;;18.67;8.50;;;6.30;99.90;;;;;;5024850;28;20052;-77
2022/11/08 07:52:28;;;;;;;12.20;7.18;;;6.30;99.90;;;;;;5027134;28;20112;-76
2022/11/08 07:54:54;;;;;;;13.25;7.38;;;6.40;99.90;;;;;;5024231;28;20053;-77
2022/11/08 07:57:20;;;;;;;9.48;7.05;;;6.40;99.90;;;;;;5023003;28;20037;-78
2022/11/08 07:59:45;;;;;;;13.93;7.18;;;6.50;99.90;;;;;;5028635;28;20028;-78
2022/11/08 08:02:12;;;;;;;10.77;6.47;;;6.60;99.90;;;;;;5029456;28;20021;-79
2022/11/08 08:04:38;;;;;;;9.35;6.68;;;6.70;99.90;;;;;;5026693;28;20079;-77
2022/11/08 08:07:04;;;;;;;12.70;7.30;;;6.80;99.90;;;;;;5029409;28;20083;-78
2022/11/08 08:09:33;;;;;;;15.38;8.35;;;6.80;99.90;;;;;;5031964;28;20037;-79
2022/11/08 08:11:59;;;;;;;15.88;8.38;;;7.00;99.90;;;;;;5023603;28;20075;-79
2022/11/08 08:14:25;;;;;;;15.20;8.95;;;7.00;99.90;;;;;;5024398;28;20026;-78
2022/11/08 08:16:51;;;;;;;15.73;8.95;;;7.10;99.90;;;;;;5029697;28;20057;-78
2022/11/08 08:19:16;;;;;;;15.10;8.82;;;7.20;99.90;;;;;;5029890;28;20100;-78
2022/11/08 08:21:42;;;;;;;14.63;9.25;;;7.20;99.90;;;;;;5029493;28;20033;-78
2022/11/08 08:24:08;;;;;;;18.15;9.60;;;7.10;99.90;;;;;;5024259;28;20082;-77
2022/11/08 08:26:33;;;;;;;19.50;8.93;;;7.10;99.90;;;;;;5026792;28;20083;-78
2022/11/08 08:28:59;;;;;;;17.40;9.07;;;7.00;99.90;;;;;;5024724;28;20042;-78
2022/11/08 08:31:25;;;;;;;13.75;9.43;;;7.00;99.90;;;;;;5027226;28;20108;-77
2022/11/08 08:33:50;;;;;;;13.75;7.68;;;6.90;99.90;;;;;;5029088;28;20092;-78
2022/11/08 08:36:16;;;;;;;14.40;7.45;;;6.90;99.90;;;;;;5031461;28;20516;-80
2022/11/08 08:38:41;;;;;;;12.48;7.32;;;7.00;99.90;;;;;;5024931;28;20044;-78
2022/11/08 08:41:07;;;;;;;17.20;6.88;;;7.00;99.90;;;;;;5028281;28;20029;-77
2022/11/08 08:43:33;;;;;;;12.88;6.38;;;7.20;99.90;;;;;;5031198;28;20053;-78
2022/11/08 08:46:00;;;;;;;11.93;6.35;;;7.30;99.90;;;;;;5029019;28;20112;-78
2022/11/08 08:48:26;;;;;;;9.25;6.20;;;7.30;99.90;;;;;;5024873;28;20037;-78
2022/11/08 08:50:51;;;;;;;12.77;6.40;;;7.40;99.90;;;;;;5026742;28;20493;-78
2022/11/08 08:53:17;;;;;;;11.70;6.15;;;7.40;99.90;;;;;;5025253;28;20405;-78
2022/11/08 08:55:43;;;;;;;14.32;6.25;;;7.50;99.90;;;;;;5028757;28;20028;-78
2022/11/08 08:58:09;;;;;;;8.43;5.55;;;7.60;99.90;;;;;;5028494;28;20025;-77
2022/11/08 09:00:36;;;;;;;11.75;6.35;;;7.60;99.90;;;;;;5026931;28;20093;-78
2022/11/08 09:03:06;;;;;;;12.00;5.40;;;7.70;99.90;;;;;;5026308;28;20043;-77
2022/11/08 09:05:33;;;;;;;18.98;6.05;;;7.80;99.90;;;;;;5039854;28;20482;-77
2022/11/08 09:07:58;;;;;;;9.93;5.97;;;7.80;99.90;;;;;;5021413;28;20037;-77
2022/11/08 09:10:24;;;;;;;8.02;5.22;;;7.90;99.90;;;;;;5023568;28;20412;-78
2022/11/08 09:12:50;;;;;;;9.25;5.38;;;8.00;99.90;;;;;;5025125;28;20091;-78
2022/11/08 09:15:16;;;;;;;8.65;5.43;;;8.00;99.90;;;;;;5030485;28;20033;-78
2022/11/08 09:17:42;;;;;;;11.13;5.90;;;8.10;99.90;;;;;;5027073;28;20119;-78
2022/11/08 09:20:08;;;;;;;11.50;6.45;;;8.10;99.90;;;;;;5022347;28;20117;-78
2022/11/08 09:22:34;;;;;;;9.18;5.35;;;8.20;99.90;;;;;;5028286;28;20026;-79
2022/11/08 09:25:00;;;;;;;10.90;6.00;;;8.30;99.90;;;;;;5020638;28;20191;-80
2022/11/08 09:27:30;;;;;;;13.85;5.88;;;8.30;99.90;;;;;;5027307;28;20018;-79
2022/11/08 09:29:59;;;;;;;13.10;5.40;;;8.40;99.90;;;;;;5028998;28;20036;-80
2022/11/08 09:32:28;;;;;;;13.48;6.57;;;8.50;99.90;;;;;;5023605;28;20072;-79
2022/11/08 09:34:55;;;;;;;11.60;5.85;;;8.50;99.90;;;;;;5025891;28;20026;-79
2022/11/08 09:37:24;;;;;;;7.57;5.50;;;8.70;99.90;;;;;;5029028;28;20029;-82
2022/11/08 09:39:50;;;;;;;10.10;6.03;;;8.80;99.90;;;;;;5026350;28;20033;-82
2022/11/08 09:42:19;;;;;;;10.60;6.40;;;8.90;99.90;;;;;;5030737;28;20060;-81
2022/11/08 09:45:06;;;;;;;13.20;6.07;;;8.90;99.90;;;;;;5023874;28;20289;-82
2022/11/08 09:47:40;;;;;;;12.13;5.45;;;9.00;99.90;;;;;;5029039;28;20031;-81
2022/11/08 09:50:15;;;;;;;9.80;5.28;;;9.10;99.90;;;;;;5029433;28;20030;-81
2022/11/08 09:52:46;;;;;;;11.55;5.25;;;9.20;99.90;;;;;;5022222;28;20041;-81
2022/11/08 09:55:23;;;;;;;8.88;5.00;;;9.20;99.90;;;;;;5030859;28;20072;-80
2022/11/08 09:58:10;;;;;;;10.55;5.30;;;9.30;99.90;;;;;;5027579;28;20037;-80
2022/11/08 10:00:39;;;;;;;10.48;5.25;;;9.40;99.90;;;;;;5019474;28;20095;-80
2022/11/08 10:03:04;;;;;;;10.32;5.60;;;9.40;99.90;;;;;;5024928;28;20120;-81
2022/11/08 10:05:40;;;;;;;9.88;5.05;;;9.50;99.90;;;;;;5017723;28;20113;-80
2022/11/08 10:08:27;;;;;;;10.02;4.60;;;9.60;99.90;;;;;;5020585;28;21043;-80
2022/11/08 10:11:17;;;;;;;7.20;4.65;;;9.70;99.90;;;;;;5014721;28;20033;-79
2022/11/08 10:13:56;;;;;;;7.68;4.88;;;9.70;99.90;;;;;;5024765;28;26369;-79
2022/11/08 10:16:49;;;;;;;11.57;5.15;;;9.80;99.90;;;;;;5021017;28;20414;-80
2022/11/08 10:19:40;;;;;;;8.52;4.90;;;9.90;99.90;;;;;;5024784;28;20041;-78
2022/11/08 10:22:47;;;;;;;14.77;5.30;;;10.00;99.90;;;;;;5022035;28;20088;-80
2022/11/08 10:25:25;;;;;;;8.07;5.00;;;10.10;99.90;;;;;;5016442;28;20036;-75
2022/11/08 10:27:55;;;;;;;9.00;4.90;;;10.20;99.90;;;;;;5028825;28;20037;-78
2022/11/08 10:30:24;;;;;;;11.82;5.68;;;10.30;99.90;;;;;;5021389;28;20041;-78
2022/11/08 10:32:55;;;;;;;15.48;5.55;;;10.40;99.90;;;;;;5025013;28;20026;-80
2022/11/08 10:35:31;;;;;;;9.25;5.47;;;10.40;99.90;;;;;;5028841;28;20022;-80
2022/11/08 10:37:59;;;;;;;13.23;5.47;;;10.40;99.90;;;;;;5024498;28;20072;-80
2022/11/08 10:40:25;;;;;;;8.20;4.82;;;10.50;99.90;;;;;;5026210;28;20426;-80
2022/11/08 10:42:58;;;;;;;10.55;5.35;;;10.60;99.90;;;;;;5027521;28;20025;-77
2022/11/08 10:45:23;;;;;;;9.07;5.57;;;10.60;99.90;;;;;;5029862;28;20040;-78
2022/11/08 10:47:51;;;;;;;10.98;5.25;;;10.70;99.90;;;;;;5028879;28;20021;-79
2022/11/08 10:50:20;;;;;;;11.65;5.53;;;10.70;99.90;;;;;;5027892;28;20035;-78
2022/11/08 10:52:55;;;;;;;7.28;4.43;;;10.80;99.90;;;;;;5025999;28;20034;-78
2022/11/08 10:55:27;;;;;;;8.52;4.03;;;10.80;99.90;;;;;;5029224;28;20018;-79
2022/11/08 10:57:52;;;;;;;9.95;4.40;;;10.90;99.90;;;;;;5027477;28;20357;-81
2022/11/08 11:00:22;;;;;;;6.65;4.20;;;10.90;99.90;;;;;;5027912;28;20512;-80
2022/11/08 11:02:55;;;;;;;10.73;5.35;;;11.00;99.90;;;;;;5026777;28;20072;-80
2022/11/08 11:05:32;;;;;;;12.60;4.65;;;11.00;99.90;;;;;;5025893;28;20033;-80
2022/11/08 11:08:06;;;;;;;11.40;5.13;;;11.10;99.90;;;;;;5029152;28;20033;-80
2022/11/08 11:10:45;;;;;;;9.85;5.80;;;11.10;99.90;;;;;;5026335;28;20026;-78
2022/11/08 11:13:18;;;;;;;9.00;5.03;;;11.20;99.90;;;;;;5022586;28;20029;-79
2022/11/08 11:16:04;;;;;;;10.15;4.55;;;11.20;99.90;;;;;;5022818;28;20022;-79
2022/11/08 11:18:34;;;;;;;8.73;4.72;;;11.30;99.90;;;;;;5027774;28;20041;-82
2022/11/08 11:21:06;;;;;;;9.80;6.03;;;11.40;99.90;;;;;;5025760;28;20033;-79
2022/11/08 11:23:41;;;;;;;12.13;5.97;;;11.40;99.90;;;;;;5028133;28;20018;-79
2022/11/08 11:26:16;;;;;;;15.27;6.50;;;11.60;99.90;;;;;;5023824;28;20025;-78
2022/11/08 11:29:04;;;;;;;12.10;5.93;;;11.60;99.90;;;;;;5026215;28;20017;-78
2022/11/08 11:31:41;;;;;;;8.85;5.07;;;11.70;99.90;;;;;;5032164;28;20029;-80
2022/11/08 11:34:16;;;;;;;8.80;5.68;;;11.70;99.90;;;;;;5035106;28;20030;-78
2022/11/08 11:36:43;;;;;;;11.40;6.50;;;11.80;99.90;;;;;;5034682;28;20060;-78
2022/11/08 11:39:27;;;;;;;12.60;6.97;;;11.80;99.90;;;;;;5038142;28;20026;-77
2022/11/08 11:42:01;;;;;;;11.75;5.82;;;11.90;99.90;;;;;;5035632;28;20052;-78
2022/11/08 11:45:05;;;;;;;11.55;6.00;;;11.90;99.90;;;;;;5034536;28;20089;-78
2022/11/08 11:48:23;;;;;;;12.32;5.32;;;11.90;99.90;;;;;;5036624;28;20073;-78
2022/11/08 11:50:49;;;;;;;14.50;5.25;;;12.00;99.90;;;;;;5011471;28;20558;-78
2022/11/08 11:53:31;;;;;;;12.48;5.30;;;12.00;99.90;;;;;;5022269;28;20585;-78
2022/11/08 11:56:25;;;;;;;9.68;5.50;;;12.10;99.90;;;;;;5019789;28;20029;-78
2022/11/08 11:59:26;;;;;;;12.85;4.95;;;12.10;99.90;;;;;;5025002;28;20044;-77
2022/11/08 12:02:09;;;;;;;11.65;4.45;;;12.10;99.90;;;;;;5024403;28;20146;-78
2022/11/08 12:05:13;;;;;;;11.65;4.70;;;12.20;99.90;;;;;;5028723;28;20040;-78
2022/11/08 12:07:51;;;;;;;8.55;4.60;;;12.20;99.90;;;;;;5028580;28;20021;-79
2022/11/08 12:10:31;;;;;;;9.63;4.88;;;12.30;99.90;;;;;;5025724;28;20071;-79
2022/11/08 12:13:14;;;;;;;9.23;4.72;;;12.30;99.90;;;;;;5021211;28;20496;-79
2022/11/08 12:15:52;;;;;;;5.85;3.67;;;12.40;99.90;;;;;;5020241;28;20045;-79
2022/11/08 12:18:44;;;;;;;7.53;3.50;;;12.40;99.90;;;;;;5023668;28;20030;-80
2022/11/08 12:21:35;;;;;;;7.82;4.25;;;12.50;99.90;;;;;;5025880;28;20033;-78
2022/11/08 12:24:37;;;;;;;10.23;3.15;;;12.50;99.90;;;;;;5018907;28;20047;-79
2022/11/08 12:27:16;;;;;;;11.38;4.50;;;12.60;99.90;;;;;;5013591;28;20037;-78
2022/11/08 12:30:02;;;;;;;8.30;4.20;;;12.60;99.90;;;;;;5023363;28;20517;-78
2022/11/08 12:33:19;;;;;;;12.00;4.13;;;12.70;99.90;;;;;;5025824;28;20108;-79
2022/11/08 12:36:03;;;;;;;9.90;4.97;;;12.70;99.90;;;;;;5008089;28;20040;-78
2022/11/08 12:38:38;;;;;;;9.23;4.68;;;12.80;99.90;;;;;;5021891;28;20097;-79
2022/11/08 12:41:24;;;;;;;8.40;4.10;;;12.90;99.90;;;;;;5015508;28;20405;-79
2022/11/08 12:43:58;;;;;;;13.77;4.75;;;12.90;99.90;;;;;;5023265;28;20026;-79
2022/11/08 12:46:25;;;;;;;12.43;4.35;;;13.00;99.90;;;;;;5022180;28;20063;-78
2022/11/08 12:49:32;;;;;;;8.75;3.95;;;13.00;99.90;;;;;;5028860;28;20032;-78
2022/11/08 12:52:04;;;;;;;7.38;3.38;;;13.10;99.90;;;;;;5008998;28;20029;-79
2022/11/08 12:54:40;;;;;;;10.43;4.40;;;13.20;99.90;;;;;;5023707;28;20042;-78
2022/11/08 12:57:13;;;;;;;6.68;3.20;;;13.20;99.90;;;;;;5023251;28;20025;-79
2022/11/08 12:59:59;;;;;;;10.00;3.60;;;13.30;99.90;;;;;;5028123;28;20489;-77
2022/11/08 13:02:32;;;;;;;8.75;3.22;;;13.40;99.90;;;;;;5024737;28;20592;-78
2022/11/08 13:05:04;;;;;;;7.10;3.20;;;13.40;99.90;;;;;;5019595;28;20018;-79
2022/11/08 13:08:00;;;;;;;6.22;3.22;;;13.40;99.90;;;;;;5013962;28;20037;-78
2022/11/08 13:10:28;;;;;;;6.13;3.45;;;13.50;99.90;;;;;;5025669;28;20056;-80
2022/11/08 13:13:06;;;;;;;6.07;3.33;;;13.50;99.90;;;;;;5022524;28;20536;-80
2022/11/08 13:15:32;;;;;;;11.40;3.80;;;13.60;99.90;;;;;;5027759;28;20033;-79
2022/11/08 13:18:07;;;;;;;6.97;2.88;;;13.60;99.90;;;;;;5028057;28;20209;-79
2022/11/08 13:20:47;;;;;;;8.07;2.63;;;13.70;99.90;;;;;;5030060;28;20501;-79
2022/11/08 13:23:28;;;;;;;6.22;2.45;;;13.70;99.90;;;;;;5032516;28;20550;-79